Time;durP1;ratioP1;P1;durP2;ratioP2;P2;SDS_P1;SDS_P2;PMS_P1;PMS_P2;Temp;Humidity;BMP_temperature;BMP_pressure;BME280_temperature;BME280_humidity;BME280_pressure;Samples;Min_cycle;Max_cycle;Signal;HPM_P1;HPM_P2
2021/12/06 00:00:44;;;;;;;26.42;14.43;;;3.40;99.90;;;;;;5061111;28;20678;-62
2021/12/06 00:03:22;;;;;;;15.32;12.35;;;3.30;99.90;;;;;;5072896;28;20697;-62
2021/12/06 00:05:51;;;;;;;14.90;12.02;;;3.40;99.90;;;;;;5065315;28;20684;-62
2021/12/06 00:08:20;;;;;;;15.32;12.38;;;3.50;99.90;;;;;;5054298;28;20231;-61
2021/12/06 00:10:50;;;;;;;16.52;12.10;;;3.50;99.90;;;;;;5065960;28;20214;-62
2021/12/06 00:13:22;;;;;;;15.32;12.35;;;3.50;99.90;;;;;;5070789;28;20555;-62
2021/12/06 00:15:51;;;;;;;20.50;11.38;;;3.60;99.90;;;;;;5066093;28;20188;-62
2021/12/06 00:18:20;;;;;;;14.60;12.02;;;3.60;99.90;;;;;;5070425;28;20232;-62
2021/12/06 00:20:48;;;;;;;14.85;11.18;;;3.60;99.90;;;;;;5055059;28;20763;-62
2021/12/06 00:23:16;;;;;;;15.60;12.43;;;3.50;99.90;;;;;;5059762;28;20250;-62
2021/12/06 00:25:44;;;;;;;18.60;12.95;;;3.40;99.90;;;;;;5068304;28;20188;-62
2021/12/06 00:28:12;;;;;;;21.10;13.20;;;3.20;99.90;;;;;;5063611;28;20626;-62
2021/12/06 00:30:42;;;;;;;16.77;12.63;;;3.20;99.90;;;;;;5053207;28;20200;-62
2021/12/06 00:33:10;;;;;;;14.75;12.52;;;3.10;99.90;;;;;;5052397;28;20231;-61
2021/12/06 00:35:39;;;;;;;15.63;12.98;;;3.10;99.90;;;;;;5062333;28;20241;-59
2021/12/06 00:38:07;;;;;;;18.52;13.40;;;3.10;99.90;;;;;;5066225;28;20702;-59
2021/12/06 00:40:38;;;;;;;13.05;11.75;;;3.10;99.90;;;;;;5063499;28;20200;-59
2021/12/06 00:43:07;;;;;;;15.85;12.30;;;3.20;99.90;;;;;;5067954;28;20286;-59
2021/12/06 00:45:36;;;;;;;13.43;12.02;;;3.20;99.90;;;;;;5069932;28;20196;-59
2021/12/06 00:48:06;;;;;;;16.42;11.70;;;3.20;99.90;;;;;;5063615;28;20215;-58
2021/12/06 00:50:39;;;;;;;17.33;13.23;;;3.20;99.90;;;;;;5058279;28;20192;-59
2021/12/06 00:53:07;;;;;;;14.07;12.05;;;3.20;99.90;;;;;;5061206;28;20231;-59
2021/12/06 00:55:36;;;;;;;14.43;11.93;;;3.30;99.90;;;;;;5053523;28;20212;-59
2021/12/06 00:58:06;;;;;;;18.55;13.50;;;3.30;99.90;;;;;;5066168;28;20377;-59
2021/12/06 01:00:38;;;;;;;17.48;13.88;;;3.30;99.90;;;;;;5061665;28;20205;-58
2021/12/06 01:03:11;;;;;;;18.60;13.30;;;3.20;99.90;;;;;;5052851;28;20221;-58
2021/12/06 01:05:41;;;;;;;19.63;12.95;;;3.20;99.90;;;;;;5054133;28;20191;-59
2021/12/06 01:08:09;;;;;;;17.83;12.98;;;3.30;99.90;;;;;;5065281;28;20310;-59
2021/12/06 01:10:39;;;;;;;19.02;13.02;;;3.30;99.90;;;;;;5060699;28;20230;-59
2021/12/06 01:13:08;;;;;;;19.45;13.65;;;3.30;99.90;;;;;;5065036;28;20212;-59
2021/12/06 01:15:37;;;;;;;19.60;13.05;;;3.30;99.90;;;;;;5068307;28;20202;-59
2021/12/06 01:18:09;;;;;;;17.05;13.45;;;3.30;99.90;;;;;;5062075;28;20212;-59
2021/12/06 01:20:43;;;;;;;22.17;15.02;;;3.30;99.90;;;;;;5067378;28;20265;-59
2021/12/06 01:23:15;;;;;;;19.13;14.40;;;3.30;99.90;;;;;;5060551;28;20245;-59
2021/12/06 01:25:51;;;;;;;18.60;14.23;;;3.30;99.90;;;;;;5059074;28;20193;-59
2021/12/06 01:28:58;;;;;;;16.83;13.18;;;3.20;99.90;;;;;;5063233;28;20216;-59
2021/12/06 01:31:38;;;;;;;17.00;12.43;;;3.30;99.90;;;;;;5070581;28;20188;-60
2021/12/06 01:39:39;;;;;;;14.02;11.73;;;3.10;99.90;;;;;;5057137;28;20255;-60
2021/12/06 01:42:09;;;;;;;17.48;13.35;;;3.10;99.90;;;;;;5069684;28;20219;-59
2021/12/06 01:44:38;;;;;;;16.38;13.73;;;3.10;99.90;;;;;;5069986;28;20192;-60
2021/12/06 01:47:17;;;;;;;19.77;13.40;;;3.00;99.90;;;;;;5070187;28;20210;-59
2021/12/06 01:49:50;;;;;;;19.40;13.45;;;3.00;99.90;;;;;;5068167;28;20224;-60
2021/12/06 01:52:25;;;;;;;16.88;13.73;;;3.00;99.90;;;;;;5057757;28;20773;-59
2021/12/06 01:54:54;;;;;;;20.83;15.05;;;3.00;99.90;;;;;;5051857;28;20195;-59
2021/12/06 01:57:24;;;;;;;15.75;12.77;;;3.00;99.90;;;;;;5053298;28;20224;-59
2021/12/06 01:59:53;;;;;;;17.58;14.07;;;3.00;99.90;;;;;;5061418;28;20227;-59
2021/12/06 02:02:23;;;;;;;19.25;13.93;;;2.90;99.90;;;;;;5049853;28;20216;-59
2021/12/06 02:04:53;;;;;;;18.85;12.80;;;3.00;99.90;;;;;;5051398;28;20220;-59
2021/12/06 02:07:27;;;;;;;18.88;13.82;;;3.00;99.90;;;;;;5057063;28;20228;-59
2021/12/06 02:09:58;;;;;;;13.70;11.20;;;2.90;99.90;;;;;;5057180;28;20227;-59
2021/12/06 02:12:31;;;;;;;18.70;14.63;;;2.90;99.90;;;;;;5066161;28;20220;-60
2021/12/06 02:15:05;;;;;;;19.15;13.70;;;2.90;99.90;;;;;;5055406;28;20191;-58
2021/12/06 02:17:39;;;;;;;16.00;12.07;;;3.00;99.90;;;;;;5066956;28;20216;-59
2021/12/06 02:20:15;;;;;;;16.85;11.63;;;3.00;99.90;;;;;;5065943;28;20311;-58
2021/12/06 02:22:46;;;;;;;14.93;12.00;;;3.00;99.90;;;;;;5060554;28;20302;-59
2021/12/06 02:25:18;;;;;;;16.90;12.00;;;3.00;99.90;;;;;;5061122;28;20584;-60
2021/12/06 02:27:49;;;;;;;12.43;9.95;;;2.90;99.90;;;;;;5067208;28;20250;-59
2021/12/06 02:30:19;;;;;;;14.48;11.48;;;2.90;99.90;;;;;;5056609;28;20192;-59
2021/12/06 02:32:50;;;;;;;14.02;11.38;;;2.90;99.90;;;;;;5066491;28;20285;-59
2021/12/06 02:35:22;;;;;;;12.57;10.95;;;2.90;99.90;;;;;;5053894;28;20208;-59
2021/12/06 02:37:57;;;;;;;16.33;13.20;;;2.90;99.90;;;;;;5067855;28;20277;-59
2021/12/06 02:40:29;;;;;;;16.65;12.55;;;2.90;99.90;;;;;;5035716;28;20193;-59
2021/12/06 02:42:58;;;;;;;15.65;12.15;;;2.80;99.90;;;;;;5050584;28;20223;-60
2021/12/06 02:45:28;;;;;;;16.38;11.88;;;2.70;99.90;;;;;;5063099;28;20185;-59
2021/12/06 02:48:00;;;;;;;12.55;10.27;;;2.70;99.90;;;;;;5055135;28;20266;-59
2021/12/06 02:50:36;;;;;;;13.00;10.32;;;2.80;99.90;;;;;;5056882;28;20203;-59
2021/12/06 02:53:06;;;;;;;14.50;9.88;;;2.90;99.90;;;;;;5053634;28;20219;-59
2021/12/06 02:55:36;;;;;;;11.50;9.70;;;2.90;99.90;;;;;;5071090;28;20223;-59
2021/12/06 02:58:16;;;;;;;16.83;12.05;;;3.00;99.90;;;;;;5073589;28;20223;-60
2021/12/06 03:00:48;;;;;;;15.30;10.85;;;2.90;99.90;;;;;;5071927;28;20196;-59
2021/12/06 03:03:18;;;;;;;13.63;11.10;;;2.60;99.90;;;;;;5055713;28;20344;-59
2021/12/06 03:05:50;;;;;;;16.38;11.18;;;2.60;99.90;;;;;;5066522;28;20663;-58
2021/12/06 03:08:42;;;;;;;16.30;12.48;;;2.60;99.90;;;;;;5059885;28;20636;-60
2021/12/06 03:11:14;;;;;;;13.52;11.40;;;2.50;99.90;;;;;;5071784;28;20198;-59
2021/12/06 03:13:42;;;;;;;14.20;10.07;;;2.60;99.90;;;;;;5069475;28;20268;-60
2021/12/06 03:16:13;;;;;;;15.52;11.68;;;2.60;99.90;;;;;;5071801;28;20182;-59
2021/12/06 03:18:43;;;;;;;11.57;10.13;;;2.70;99.90;;;;;;5057600;28;20721;-59
2021/12/06 03:21:11;;;;;;;16.05;11.30;;;2.80;99.90;;;;;;5060641;28;20227;-60
2021/12/06 03:23:41;;;;;;;17.50;12.70;;;2.80;99.90;;;;;;5065827;28;20682;-59
2021/12/06 03:26:09;;;;;;;15.77;12.35;;;2.80;99.90;;;;;;5053683;28;20184;-59
2021/12/06 03:28:38;;;;;;;14.35;11.82;;;2.80;99.90;;;;;;5059621;28;20270;-59
2021/12/06 03:31:08;;;;;;;19.27;10.85;;;2.60;99.90;;;;;;5071434;28;20192;-59
2021/12/06 03:33:37;;;;;;;20.40;12.50;;;2.70;99.90;;;;;;5072091;28;20277;-60
2021/12/06 03:36:07;;;;;;;17.77;12.63;;;2.80;99.90;;;;;;5063709;28;20192;-60
2021/12/06 03:38:38;;;;;;;17.67;11.63;;;2.80;99.90;;;;;;5052495;28;20318;-58
2021/12/06 03:41:09;;;;;;;15.30;10.63;;;2.90;99.90;;;;;;5057723;28;20254;-59
2021/12/06 03:43:39;;;;;;;14.55;11.55;;;3.00;99.90;;;;;;5063555;28;20225;-59
2021/12/06 03:46:08;;;;;;;16.60;11.60;;;3.00;99.90;;;;;;5066926;28;20202;-59
2021/12/06 03:48:39;;;;;;;18.75;12.85;;;3.00;99.90;;;;;;5055330;28;20258;-58
2021/12/06 03:51:08;;;;;;;20.80;12.25;;;3.00;99.90;;;;;;5057387;28;20188;-59
2021/12/06 03:53:54;;;;;;;18.70;12.75;;;3.00;99.90;;;;;;5052269;28;20227;-58
2021/12/06 03:56:43;;;;;;;15.85;12.50;;;3.00;99.90;;;;;;5068786;28;20562;-59
2021/12/06 03:59:12;;;;;;;17.38;12.30;;;3.00;99.90;;;;;;5060272;28;20310;-59
2021/12/06 04:01:41;;;;;;;19.75;12.88;;;3.00;99.90;;;;;;5053346;28;20196;-59
2021/12/06 04:04:11;;;;;;;17.48;13.80;;;3.00;99.90;;;;;;5063792;28;20223;-59
2021/12/06 04:06:42;;;;;;;21.33;14.23;;;2.90;99.90;;;;;;5071886;28;20705;-59
2021/12/06 04:09:12;;;;;;;17.08;13.48;;;2.80;99.90;;;;;;5070507;28;20281;-59
2021/12/06 04:11:44;;;;;;;17.00;13.38;;;2.90;99.90;;;;;;5073413;28;20204;-60
2021/12/06 04:14:14;;;;;;;17.02;12.70;;;3.00;99.90;;;;;;5064085;28;20220;-59
2021/12/06 04:16:42;;;;;;;18.30;14.35;;;3.00;99.90;;;;;;5053533;28;20292;-60
2021/12/06 04:19:13;;;;;;;19.23;13.55;;;3.00;99.90;;;;;;5062279;28;20211;-58
2021/12/06 04:21:42;;;;;;;19.35;11.98;;;2.90;99.90;;;;;;5062145;28;20662;-58
2021/12/06 04:24:13;;;;;;;19.42;12.93;;;2.90;99.90;;;;;;5071749;28;20338;-59
2021/12/06 04:26:44;;;;;;;16.13;11.77;;;2.90;99.90;;;;;;5067185;28;20665;-59
2021/12/06 04:29:16;;;;;;;22.77;13.52;;;2.90;99.90;;;;;;5065947;28;20218;-59
2021/12/06 04:31:48;;;;;;;18.50;13.40;;;2.90;99.90;;;;;;5067601;28;20204;-59
2021/12/06 04:34:19;;;;;;;19.40;13.45;;;3.00;99.90;;;;;;5062473;28;20302;-59
2021/12/06 04:36:48;;;;;;;19.13;14.30;;;3.10;99.90;;;;;;5067294;28;20223;-59
2021/12/06 04:39:20;;;;;;;19.25;15.10;;;3.10;99.90;;;;;;5053543;28;20270;-60
2021/12/06 04:41:51;;;;;;;20.55;13.55;;;3.20;99.90;;;;;;5061108;28;20631;-59
2021/12/06 04:44:20;;;;;;;22.80;13.50;;;3.20;99.90;;;;;;5067288;28;20399;-59
2021/12/06 04:46:48;;;;;;;19.13;13.27;;;3.20;99.90;;;;;;5065579;28;20206;-59
2021/12/06 04:49:17;;;;;;;23.48;13.90;;;3.10;99.90;;;;;;5066179;28;20255;-59
2021/12/06 04:51:53;;;;;;;16.30;13.38;;;3.10;99.90;;;;;;5053170;28;20242;-60
2021/12/06 04:54:26;;;;;;;22.98;14.13;;;3.10;99.90;;;;;;5062346;28;20240;-58
2021/12/06 04:57:01;;;;;;;19.17;12.73;;;3.10;99.90;;;;;;5077719;28;20191;-59
2021/12/06 04:59:34;;;;;;;23.58;14.27;;;3.10;99.90;;;;;;5058211;28;20231;-60
2021/12/06 05:02:10;;;;;;;17.85;15.20;;;3.00;99.90;;;;;;5070650;28;20595;-59
2021/12/06 05:04:47;;;;;;;16.90;13.25;;;3.00;99.90;;;;;;5069464;28;20579;-59
2021/12/06 05:07:20;;;;;;;21.17;14.73;;;2.90;99.90;;;;;;5061542;28;20232;-58
2021/12/06 05:09:49;;;;;;;24.85;16.30;;;2.90;99.90;;;;;;5052022;28;20212;-59
2021/12/06 05:12:25;;;;;;;19.55;15.20;;;2.80;99.90;;;;;;5052704;28;20219;-60
2021/12/06 05:14:53;;;;;;;25.13;15.63;;;2.80;99.90;;;;;;5067062;28;20200;-60
2021/12/06 05:17:22;;;;;;;24.55;15.80;;;2.80;99.90;;;;;;5069867;28;20298;-59
2021/12/06 05:19:53;;;;;;;23.17;15.95;;;2.80;99.90;;;;;;5054695;28;20223;-60
2021/12/06 05:22:24;;;;;;;25.80;17.40;;;2.90;99.90;;;;;;5063700;28;20294;-59
2021/12/06 05:24:52;;;;;;;25.48;19.25;;;2.90;99.90;;;;;;5053217;28;20230;-59
2021/12/06 05:27:27;;;;;;;27.10;18.23;;;2.80;99.90;;;;;;5051560;28;20220;-59
2021/12/06 05:30:00;;;;;;;41.00;21.98;;;2.90;99.90;;;;;;5060792;28;20273;-59
2021/12/06 05:32:33;;;;;;;36.17;21.88;;;2.90;99.90;;;;;;5050210;28;20629;-59
2021/12/06 05:35:05;;;;;;;34.83;22.67;;;3.00;99.90;;;;;;5051951;28;20544;-59
2021/12/06 05:37:35;;;;;;;34.90;21.85;;;3.00;99.90;;;;;;5060124;28;20732;-58
2021/12/06 05:40:06;;;;;;;31.52;21.20;;;3.10;99.90;;;;;;5067677;28;20226;-59
2021/12/06 05:42:37;;;;;;;37.17;23.15;;;3.10;99.90;;;;;;5055126;28;20215;-58
2021/12/06 05:45:07;;;;;;;38.50;24.33;;;3.00;99.90;;;;;;5055198;28;20384;-59
2021/12/06 05:47:35;;;;;;;39.72;25.55;;;3.00;99.90;;;;;;5053945;28;20216;-59
2021/12/06 05:50:04;;;;;;;45.40;27.15;;;3.10;99.90;;;;;;5055354;28;20212;-59
2021/12/06 05:52:33;;;;;;;43.75;27.58;;;3.10;99.90;;;;;;5066455;28;20242;-59
2021/12/06 05:55:01;;;;;;;40.10;24.38;;;3.10;99.90;;;;;;5071690;28;20184;-59
2021/12/06 05:57:29;;;;;;;44.63;25.75;;;3.20;99.90;;;;;;5052549;28;21600;-59
2021/12/06 05:59:59;;;;;;;40.30;25.13;;;3.30;99.90;;;;;;5070592;28;20215;-59
2021/12/06 06:02:27;;;;;;;37.10;25.35;;;3.30;99.90;;;;;;5055041;28;20269;-59
2021/12/06 06:04:56;;;;;;;43.22;25.52;;;3.30;99.90;;;;;;5062430;28;20616;-59
2021/12/06 06:07:24;;;;;;;39.78;25.20;;;3.40;99.90;;;;;;5055593;28;20222;-58
2021/12/06 06:09:52;;;;;;;40.00;24.23;;;3.40;99.90;;;;;;5061851;28;20223;-59
2021/12/06 06:12:20;;;;;;;36.45;23.42;;;3.40;99.90;;;;;;5059569;28;20220;-58
2021/12/06 06:14:48;;;;;;;39.42;24.55;;;3.40;99.90;;;;;;5058420;28;20555;-58
2021/12/06 06:17:19;;;;;;;41.25;25.42;;;3.40;99.90;;;;;;5052158;28;20606;-59
2021/12/06 06:19:52;;;;;;;44.67;24.02;;;3.40;99.90;;;;;;5053902;28;20215;-60
2021/12/06 06:22:20;;;;;;;35.70;21.30;;;3.40;99.90;;;;;;5063189;28;20230;-59
2021/12/06 06:24:48;;;;;;;39.50;24.58;;;3.40;99.90;;;;;;5069358;28;20292;-59
2021/12/06 06:27:17;;;;;;;37.53;22.15;;;3.40;99.90;;;;;;5067942;28;20289;-58
2021/12/06 06:29:46;;;;;;;43.08;25.42;;;3.40;99.90;;;;;;5070589;28;20223;-59
2021/12/06 06:32:14;;;;;;;41.50;24.98;;;3.40;99.90;;;;;;5071283;28;20184;-59
2021/12/06 06:34:44;;;;;;;45.03;25.38;;;3.30;99.90;;;;;;5074254;28;20253;-59
2021/12/06 06:37:12;;;;;;;53.70;29.75;;;3.40;99.90;;;;;;5071808;28;20206;-60
2021/12/06 06:39:40;;;;;;;47.38;26.65;;;3.40;99.90;;;;;;5070634;28;20253;-59
2021/12/06 06:42:09;;;;;;;60.75;27.27;;;3.30;99.90;;;;;;5071320;28;20593;-59
2021/12/06 06:44:37;;;;;;;53.78;28.10;;;3.20;99.90;;;;;;5071392;28;20211;-60
2021/12/06 06:47:05;;;;;;;49.22;26.25;;;3.30;99.90;;;;;;5062142;28;20703;-60
2021/12/06 06:49:33;;;;;;;53.85;28.48;;;3.30;99.90;;;;;;5066162;28;20234;-59
2021/12/06 06:52:04;;;;;;;138.45;33.63;;;3.20;99.90;;;;;;5062426;28;20204;-59
2021/12/06 06:54:32;;;;;;;176.15;38.58;;;3.10;99.90;;;;;;5054780;28;20185;-59
2021/12/06 06:57:00;;;;;;;61.97;31.85;;;3.00;99.90;;;;;;5054261;28;20215;-59
2021/12/06 06:59:28;;;;;;;64.50;30.60;;;2.90;99.90;;;;;;5069856;28;20215;-59
2021/12/06 07:01:57;;;;;;;56.45;28.65;;;3.10;99.90;;;;;;5074203;28;20230;-60
2021/12/06 07:04:26;;;;;;;71.75;29.42;;;3.20;99.90;;;;;;5074327;28;20207;-60
2021/12/06 07:06:54;;;;;;;84.88;32.00;;;3.30;99.90;;;;;;5074181;28;20215;-59
2021/12/06 07:09:23;;;;;;;49.67;25.35;;;3.30;99.90;;;;;;5054234;28;20232;-60
2021/12/06 07:11:52;;;;;;;147.55;32.83;;;3.40;99.90;;;;;;5054417;28;20200;-59
2021/12/06 07:14:21;;;;;;;90.10;29.67;;;3.30;99.90;;;;;;5054326;28;20598;-60
2021/12/06 07:16:51;;;;;;;108.35;30.35;;;3.30;99.90;;;;;;5054535;28;20223;-58
2021/12/06 07:19:19;;;;;;;89.20;30.30;;;3.20;99.90;;;;;;5056069;28;20228;-59
2021/12/06 07:21:57;;;;;;;51.50;26.40;;;3.20;99.90;;;;;;5062983;28;20196;-61
2021/12/06 07:24:27;;;;;;;54.25;28.00;;;3.20;99.90;;;;;;5055517;28;20224;-59
2021/12/06 07:26:56;;;;;;;67.47;28.95;;;3.20;99.90;;;;;;5055801;28;20188;-60
2021/12/06 07:29:25;;;;;;;62.00;25.48;;;3.20;99.90;;;;;;5054781;28;20303;-58
2021/12/06 07:31:53;;;;;;;59.63;26.23;;;3.20;99.90;;;;;;5055773;28;20200;-59
2021/12/06 07:34:21;;;;;;;51.63;27.65;;;3.20;99.90;;;;;;5053506;28;20586;-59
2021/12/06 07:36:50;;;;;;;56.50;26.63;;;3.20;99.90;;;;;;5071889;28;20253;-60
2021/12/06 07:39:18;;;;;;;49.85;25.25;;;3.30;99.90;;;;;;5058035;28;20228;-60
2021/12/06 07:41:52;;;;;;;54.30;25.67;;;3.20;99.90;;;;;;5071890;28;20192;-59
2021/12/06 07:44:20;;;;;;;44.80;22.48;;;3.30;99.90;;;;;;5059200;28;20220;-59
2021/12/06 07:46:51;;;;;;;87.05;24.70;;;3.30;99.90;;;;;;5063136;28;20183;-60
2021/12/06 07:49:20;;;;;;;92.45;22.42;;;3.30;99.90;;;;;;5067831;28;20737;-59
2021/12/06 07:51:48;;;;;;;108.05;26.90;;;3.20;99.90;;;;;;5066616;28;20215;-58
2021/12/06 07:54:16;;;;;;;82.88;25.08;;;3.20;99.90;;;;;;5072327;28;20211;-59
2021/12/06 07:56:49;;;;;;;87.55;24.17;;;3.10;99.90;;;;;;5055642;28;20223;-59
2021/12/06 07:59:20;;;;;;;111.32;25.48;;;3.20;99.90;;;;;;5064788;28;20223;-58
2021/12/06 08:01:48;;;;;;;89.95;19.75;;;3.00;99.90;;;;;;5058183;28;20262;-59
2021/12/06 08:04:17;;;;;;;60.85;18.38;;;3.00;99.90;;;;;;5067005;28;20215;-59
2021/12/06 08:06:46;;;;;;;83.03;17.92;;;2.90;99.90;;;;;;5060622;28;20274;-58
2021/12/06 08:09:15;;;;;;;34.67;14.45;;;2.90;99.90;;;;;;5066558;28;20299;-59
2021/12/06 08:11:49;;;;;;;26.58;11.98;;;2.80;99.90;;;;;;5063749;28;20655;-60
2021/12/06 08:14:17;;;;;;;27.45;11.30;;;2.90;99.90;;;;;;5065129;28;20223;-59
2021/12/06 08:16:47;;;;;;;36.05;12.27;;;2.70;99.90;;;;;;5059655;28;20215;-59
2021/12/06 08:19:16;;;;;;;26.75;12.25;;;2.70;99.90;;;;;;5063914;28;20223;-59
2021/12/06 08:21:44;;;;;;;38.20;14.00;;;2.70;99.90;;;;;;5070956;28;20181;-59
2021/12/06 08:24:12;;;;;;;35.03;13.35;;;2.70;99.90;;;;;;5072220;28;20258;-60
2021/12/06 08:26:41;;;;;;;34.67;11.40;;;2.70;99.90;;;;;;5064432;28;20193;-59
2021/12/06 08:29:15;;;;;;;34.05;13.35;;;2.70;99.90;;;;;;5068310;28;20227;-60
2021/12/06 08:31:44;;;;;;;33.95;15.55;;;2.70;99.90;;;;;;5073246;28;20188;-59
2021/12/06 08:34:14;;;;;;;25.95;14.70;;;2.70;99.90;;;;;;5072125;28;20227;-58
2021/12/06 08:36:42;;;;;;;20.63;12.77;;;2.70;99.90;;;;;;5069486;28;20188;-59
2021/12/06 08:39:10;;;;;;;20.20;12.90;;;2.60;99.90;;;;;;5060851;28;20645;-59
2021/12/06 08:41:39;;;;;;;24.15;13.10;;;2.70;99.90;;;;;;5061940;28;20200;-59
2021/12/06 08:44:07;;;;;;;25.42;13.73;;;2.70;99.90;;;;;;5055102;28;20220;-59
2021/12/06 08:46:38;;;;;;;20.90;13.98;;;2.70;99.90;;;;;;5054937;28;20195;-59
2021/12/06 08:49:09;;;;;;;28.83;15.00;;;2.80;99.90;;;;;;5058698;28;20235;-59
2021/12/06 08:51:41;;;;;;;31.13;17.75;;;2.80;99.90;;;;;;5066681;28;20195;-58
2021/12/06 08:54:12;;;;;;;31.42;16.70;;;2.80;99.90;;;;;;5065308;28;20296;-59
2021/12/06 08:56:41;;;;;;;28.73;17.27;;;2.80;99.90;;;;;;5071093;28;20188;-59
2021/12/06 08:59:10;;;;;;;37.75;16.63;;;2.90;99.90;;;;;;5058827;28;20235;-59
2021/12/06 09:01:39;;;;;;;31.13;15.73;;;2.80;99.90;;;;;;5064192;28;20200;-60
2021/12/06 09:04:34;;;;;;;26.75;14.55;;;2.90;99.90;;;;;;5053032;28;20220;-60
2021/12/06 09:07:10;;;;;;;24.77;14.60;;;2.80;99.90;;;;;;5052752;28;20200;-59
2021/12/06 09:09:45;;;;;;;19.33;12.13;;;2.90;99.90;;;;;;5052294;28;20628;-59
2021/12/06 09:12:19;;;;;;;26.00;13.93;;;3.00;99.90;;;;;;5052878;28;20188;-60
2021/12/06 09:14:48;;;;;;;18.17;11.80;;;3.00;99.90;;;;;;5052728;28;20291;-59
2021/12/06 09:17:17;;;;;;;18.88;12.23;;;3.10;99.90;;;;;;5052024;28;20250;-59
2021/12/06 09:19:46;;;;;;;19.20;11.45;;;3.00;99.90;;;;;;5056435;28;20214;-59
2021/12/06 09:22:16;;;;;;;18.25;12.60;;;3.00;99.90;;;;;;5070508;28;20195;-59
2021/12/06 09:24:44;;;;;;;15.95;11.88;;;3.10;99.90;;;;;;5070444;28;20188;-58
2021/12/06 09:27:13;;;;;;;23.40;12.68;;;3.20;99.90;;;;;;5071060;28;20199;-59
2021/12/06 09:29:42;;;;;;;17.50;11.45;;;3.30;99.90;;;;;;5052888;28;20313;-59
2021/12/06 09:32:12;;;;;;;20.17;11.55;;;3.30;99.90;;;;;;5050450;28;20185;-59
2021/12/06 09:34:44;;;;;;;19.90;11.30;;;3.40;99.90;;;;;;5071435;28;20196;-59
2021/12/06 09:37:13;;;;;;;20.05;12.20;;;3.50;99.90;;;;;;5060160;28;20207;-59
2021/12/06 09:39:43;;;;;;;14.93;11.45;;;3.50;99.90;;;;;;5051798;28;20261;-58
2021/12/06 09:42:11;;;;;;;20.73;11.75;;;3.50;99.90;;;;;;5056591;28;20246;-59
2021/12/06 09:44:40;;;;;;;30.05;16.33;;;3.50;99.90;;;;;;5051433;28;20200;-59
2021/12/06 09:47:08;;;;;;;29.25;16.80;;;3.40;99.90;;;;;;5052146;28;20236;-59
2021/12/06 09:49:36;;;;;;;27.80;15.32;;;3.40;99.90;;;;;;5051460;28;20251;-60
2021/12/06 09:52:07;;;;;;;31.90;18.55;;;3.40;99.90;;;;;;5063995;28;20236;-59
2021/12/06 09:54:39;;;;;;;43.60;26.08;;;3.30;99.90;;;;;;5069460;28;20642;-59
2021/12/06 09:57:11;;;;;;;44.63;24.83;;;3.20;99.90;;;;;;5054891;28;20188;-58
2021/12/06 09:59:41;;;;;;;40.53;23.58;;;3.10;99.90;;;;;;5065911;28;20213;-59
2021/12/06 10:02:11;;;;;;;48.38;24.23;;;2.80;99.90;;;;;;5062895;28;20200;-60
2021/12/06 10:04:44;;;;;;;36.90;21.10;;;2.80;99.90;;;;;;5071497;28;20245;-58
2021/12/06 10:07:13;;;;;;;33.05;18.35;;;2.80;99.90;;;;;;5059065;28;20254;-59
2021/12/06 10:09:43;;;;;;;26.73;17.35;;;2.80;99.90;;;;;;5050672;28;20274;-59
2021/12/06 10:12:15;;;;;;;24.63;13.30;;;3.00;99.90;;;;;;5067839;28;20184;-58
2021/12/06 10:14:43;;;;;;;19.50;11.32;;;2.90;99.90;;;;;;5064408;28;20196;-59
2021/12/06 10:17:15;;;;;;;17.77;12.00;;;2.90;99.90;;;;;;5060313;28;20227;-59
2021/12/06 10:19:44;;;;;;;18.30;13.02;;;2.90;99.90;;;;;;5051471;28;20760;-59
2021/12/06 10:22:13;;;;;;;20.23;12.30;;;3.00;99.90;;;;;;5051120;28;20217;-59
2021/12/06 10:24:50;;;;;;;19.05;13.07;;;3.00;99.90;;;;;;5051328;28;20654;-59
2021/12/06 10:27:20;;;;;;;21.40;11.65;;;3.10;99.90;;;;;;5049446;28;20228;-59
2021/12/06 10:29:53;;;;;;;20.30;12.25;;;3.10;99.90;;;;;;5053315;28;20266;-59
2021/12/06 10:32:24;;;;;;;19.50;11.93;;;3.10;99.90;;;;;;5071065;28;20223;-59
2021/12/06 10:34:55;;;;;;;21.63;11.57;;;3.20;99.90;;;;;;5071345;28;20219;-58
2021/12/06 10:37:33;;;;;;;16.33;10.63;;;3.20;99.90;;;;;;5064998;28;20216;-59
2021/12/06 10:40:06;;;;;;;20.25;12.50;;;3.30;99.90;;;;;;5051366;28;20303;-59
2021/12/06 10:42:38;;;;;;;18.17;11.82;;;3.40;99.90;;;;;;5053179;28;20243;-59
2021/12/06 10:45:10;;;;;;;18.75;12.20;;;3.40;99.90;;;;;;5068926;28;20530;-58
2021/12/06 10:47:39;;;;;;;23.10;14.95;;;3.50;99.90;;;;;;5063933;28;20262;-58
2021/12/06 10:50:11;;;;;;;33.53;16.38;;;3.60;99.90;;;;;;5059188;28;20226;-59
2021/12/06 10:52:49;;;;;;;27.33;15.77;;;3.50;99.90;;;;;;5056529;28;20212;-58
2021/12/06 10:55:19;;;;;;;23.65;15.02;;;3.40;99.90;;;;;;5052865;28;20612;-59
2021/12/06 10:57:50;;;;;;;29.60;15.60;;;3.40;99.90;;;;;;5051720;28;20239;-58
2021/12/06 11:00:44;;;;;;;29.00;18.23;;;3.30;99.90;;;;;;5068002;28;20242;-60
2021/12/06 11:03:30;;;;;;;32.78;18.73;;;3.20;99.90;;;;;;5049260;28;20220;-59
2021/12/06 11:06:03;;;;;;;31.08;17.42;;;3.10;99.90;;;;;;5068295;28;20689;-58
2021/12/06 11:08:35;;;;;;;29.70;17.63;;;3.00;99.90;;;;;;5068316;28;20724;-59
2021/12/06 11:11:06;;;;;;;31.63;18.25;;;3.00;99.90;;;;;;5067265;28;20196;-59
2021/12/06 11:13:39;;;;;;;31.35;18.73;;;3.10;99.90;;;;;;5059567;28;20208;-59
2021/12/06 11:16:12;;;;;;;33.90;17.95;;;3.10;99.90;;;;;;5072648;28;20238;-59
2021/12/06 11:18:45;;;;;;;33.97;19.60;;;3.10;99.90;;;;;;5072575;28;20709;-59
2021/12/06 11:21:29;;;;;;;24.25;15.75;;;3.20;99.90;;;;;;5054908;28;20188;-59
2021/12/06 11:24:06;;;;;;;27.83;15.75;;;3.30;99.90;;;;;;5065790;28;20693;-58
2021/12/06 11:26:37;;;;;;;20.80;14.20;;;3.40;99.90;;;;;;5065489;28;20220;-59
2021/12/06 11:29:13;;;;;;;22.83;14.05;;;3.50;99.90;;;;;;5071003;28;20229;-59
2021/12/06 11:31:44;;;;;;;23.33;16.20;;;3.70;99.90;;;;;;5079384;28;20188;-59
2021/12/06 11:34:12;;;;;;;28.92;17.33;;;3.80;99.90;;;;;;5056824;28;20290;-58
2021/12/06 11:36:42;;;;;;;25.67;15.90;;;3.70;99.90;;;;;;5062606;28;20245;-59
2021/12/06 11:39:14;;;;;;;27.25;15.60;;;3.80;99.90;;;;;;5060356;28;20224;-59
2021/12/06 11:41:45;;;;;;;24.83;15.57;;;3.90;99.90;;;;;;5074173;28;20233;-59
2021/12/06 11:44:22;;;;;;;19.67;13.85;;;3.90;99.90;;;;;;5065849;28;20688;-60
2021/12/06 11:47:13;;;;;;;28.63;16.75;;;4.00;99.90;;;;;;5070182;28;20302;-59
2021/12/06 11:49:44;;;;;;;23.70;14.35;;;4.10;99.90;;;;;;5050498;28;20585;-59
2021/12/06 11:52:17;;;;;;;25.77;13.85;;;4.10;99.90;;;;;;5073550;28;20601;-58
2021/12/06 11:54:49;;;;;;;20.65;14.48;;;4.20;99.90;;;;;;5072584;28;20226;-59
2021/12/06 11:57:23;;;;;;;23.25;15.40;;;4.20;99.90;;;;;;5060114;28;20242;-59
2021/12/06 12:00:09;;;;;;;23.77;15.38;;;4.20;99.90;;;;;;5054243;28;20509;-58
2021/12/06 12:02:45;;;;;;;24.92;15.75;;;4.10;99.90;;;;;;5053096;28;20266;-59
2021/12/06 12:05:33;;;;;;;25.30;16.75;;;4.10;99.90;;;;;;5054169;28;20188;-58
2021/12/06 12:08:07;;;;;;;26.38;17.13;;;4.10;99.90;;;;;;5063029;28;20742;-58
2021/12/06 12:10:41;;;;;;;21.75;15.25;;;4.10;99.90;;;;;;5056265;28;20187;-58
2021/12/06 12:13:12;;;;;;;25.85;14.88;;;4.10;99.90;;;;;;5071933;28;20238;-58
2021/12/06 12:15:42;;;;;;;19.10;13.10;;;4.20;99.90;;;;;;5070306;28;20348;-58
2021/12/06 12:18:10;;;;;;;24.67;14.60;;;4.20;99.90;;;;;;5053867;28;20224;-58
2021/12/06 12:20:55;;;;;;;12.90;8.95;;;4.40;99.90;;;;;;5053963;28;20691;-58
2021/12/06 12:23:25;;;;;;;16.42;10.80;;;4.50;99.90;;;;;;5054150;28;20273;-58
2021/12/06 12:25:58;;;;;;;11.18;5.30;;;4.70;99.90;;;;;;5052706;28;20247;-58
2021/12/06 12:28:34;;;;;;;4.47;3.33;;;4.80;99.90;;;;;;5083262;28;20241;-59
2021/12/06 12:31:07;;;;;;;6.10;3.67;;;5.10;99.90;;;;;;5053006;28;20249;-58
2021/12/06 12:33:37;;;;;;;8.52;5.43;;;5.20;99.90;;;;;;5065207;28;20231;-58
2021/12/06 12:36:08;;;;;;;3.60;3.00;;;5.40;99.90;;;;;;5071046;28;20195;-58
2021/12/06 12:38:38;;;;;;;5.38;4.85;;;5.50;99.90;;;;;;5051876;28;20303;-59
2021/12/06 12:41:10;;;;;;;4.85;3.45;;;5.60;99.90;;;;;;5052287;28;20230;-58
2021/12/06 12:43:40;;;;;;;10.60;3.72;;;5.70;99.90;;;;;;5055240;28;20625;-58
2021/12/06 12:46:12;;;;;;;8.13;4.43;;;5.60;99.90;;;;;;5054193;28;20188;-58
2021/12/06 12:48:50;;;;;;;8.50;5.28;;;5.60;99.90;;;;;;5061129;28;20215;-60
2021/12/06 12:51:22;;;;;;;6.45;4.95;;;5.70;99.90;;;;;;5058925;28;20283;-59
2021/12/06 12:54:05;;;;;;;7.82;4.25;;;5.70;99.90;;;;;;5054188;28;20230;-59
2021/12/06 12:56:36;;;;;;;8.70;4.30;;;5.60;99.90;;;;;;5072449;28;20188;-58
2021/12/06 12:59:35;;;;;;;8.23;4.63;;;5.50;99.90;;;;;;5064991;28;20705;-59
2021/12/06 13:02:21;;;;;;;5.75;4.85;;;5.50;99.90;;;;;;5005825;28;20191;-59
2021/12/06 13:05:12;;;;;;;5.35;4.40;;;5.50;99.90;;;;;;5065609;28;20208;-58